sensor_id;sensor_type;location;lat;lon;timestamp;P1;durP1;ratioP1;P2;durP2;ratioP2
72557;SDS011;60583;50.094;8.748;2022-11-20T00:00:23;21.88;;;11.07;;
72557;SDS011;60583;50.094;8.748;2022-11-20T00:02:49;21.60;;;10.80;;
72557;SDS011;60583;50.094;8.748;2022-11-20T00:05:14;19.15;;;10.93;;
72557;SDS011;60583;50.094;8.748;2022-11-20T00:07:40;21.20;;;10.75;;
72557;SDS011;60583;50.094;8.748;2022-11-20T00:10:05;21.05;;;10.88;;
72557;SDS011;60583;50.094;8.748;2022-11-20T00:12:31;22.02;;;10.95;;
72557;SDS011;60583;50.094;8.748;2022-11-20T00:14:56;20.48;;;10.85;;
72557;SDS011;60583;50.094;8.748;2022-11-20T00:17:22;20.60;;;10.45;;
72557;SDS011;60583;50.094;8.748;2022-11-20T00:19:47;22.55;;;10.55;;
72557;SDS011;60583;50.094;8.748;2022-11-20T00:22:13;22.05;;;10.40;;
72557;SDS011;60583;50.094;8.748;2022-11-20T00:24:39;21.25;;;11.00;;
72557;SDS011;60583;50.094;8.748;2022-11-20T00:27:04;19.45;;;10.25;;
72557;SDS011;60583;50.094;8.748;2022-11-20T00:29:29;21.98;;;10.50;;
72557;SDS011;60583;50.094;8.748;2022-11-20T00:31:55;20.10;;;9.75;;
72557;SDS011;60583;50.094;8.748;2022-11-20T00:34:20;21.10;;;9.60;;
72557;SDS011;60583;50.094;8.748;2022-11-20T00:36:45;21.45;;;10.65;;
72557;SDS011;60583;50.094;8.748;2022-11-20T00:39:11;20.50;;;9.85;;
72557;SDS011;60583;50.094;8.748;2022-11-20T00:41:36;25.63;;;11.05;;
72557;SDS011;60583;50.094;8.748;2022-11-20T00:44:02;20.58;;;10.13;;
72557;SDS011;60583;50.094;8.748;2022-11-20T00:46:27;20.20;;;9.80;;
72557;SDS011;60583;50.094;8.748;2022-11-20T00:48:53;19.80;;;10.18;;
72557;SDS011;60583;50.094;8.748;2022-11-20T00:51:20;21.25;;;10.38;;
72557;SDS011;60583;50.094;8.748;2022-11-20T00:53:47;23.08;;;9.98;;
72557;SDS011;60583;50.094;8.748;2022-11-20T00:56:14;21.27;;;10.18;;
72557;SDS011;60583;50.094;8.748;2022-11-20T00:58:41;21.08;;;9.93;;
72557;SDS011;60583;50.094;8.748;2022-11-20T01:01:09;22.90;;;10.32;;
72557;SDS011;60583;50.094;8.748;2022-11-20T01:03:47;19.70;;;10.00;;
72557;SDS011;60583;50.094;8.748;2022-11-20T01:06:18;20.52;;;10.23;;
72557;SDS011;60583;50.094;8.748;2022-11-20T01:08:46;21.50;;;10.57;;
72557;SDS011;60583;50.094;8.748;2022-11-20T01:11:13;21.92;;;10.40;;
72557;SDS011;60583;50.094;8.748;2022-11-20T01:13:41;20.30;;;10.55;;
72557;SDS011;60583;50.094;8.748;2022-11-20T01:16:08;22.42;;;10.52;;
72557;SDS011;60583;50.094;8.748;2022-11-20T01:18:43;21.88;;;10.48;;
72557;SDS011;60583;50.094;8.748;2022-11-20T01:21:11;20.58;;;9.70;;
72557;SDS011;60583;50.094;8.748;2022-11-20T01:23:39;21.00;;;9.98;;
72557;SDS011;60583;50.094;8.748;2022-11-20T01:26:07;21.95;;;10.40;;
72557;SDS011;60583;50.094;8.748;2022-11-20T01:28:37;22.25;;;10.38;;
72557;SDS011;60583;50.094;8.748;2022-11-20T01:33:38;20.40;;;9.98;;
72557;SDS011;60583;50.094;8.748;2022-11-20T01:36:05;22.45;;;10.45;;
72557;SDS011;60583;50.094;8.748;2022-11-20T01:38:31;20.85;;;10.30;;
72557;SDS011;60583;50.094;8.748;2022-11-20T01:40:57;20.88;;;10.80;;
72557;SDS011;60583;50.094;8.748;2022-11-20T01:43:23;19.83;;;10.63;;
72557;SDS011;60583;50.094;8.748;2022-11-20T01:45:52;21.60;;;10.48;;
72557;SDS011;60583;50.094;8.748;2022-11-20T01:48:23;20.45;;;10.73;;
72557;SDS011;60583;50.094;8.748;2022-11-20T01:50:52;20.65;;;10.15;;
72557;SDS011;60583;50.094;8.748;2022-11-20T01:53:18;25.15;;;11.27;;
72557;SDS011;60583;50.094;8.748;2022-11-20T01:55:49;21.10;;;10.63;;
72557;SDS011;60583;50.094;8.748;2022-11-20T01:58:19;21.05;;;10.25;;
72557;SDS011;60583;50.094;8.748;2022-11-20T02:00:47;21.58;;;10.27;;
72557;SDS011;60583;50.094;8.748;2022-11-20T02:03:14;21.80;;;10.07;;
72557;SDS011;60583;50.094;8.748;2022-11-20T02:05:44;20.52;;;9.85;;
72557;SDS011;60583;50.094;8.748;2022-11-20T02:08:11;21.27;;;9.57;;
72557;SDS011;60583;50.094;8.748;2022-11-20T02:10:37;23.90;;;10.32;;
72557;SDS011;60583;50.094;8.748;2022-11-20T02:13:04;21.38;;;10.50;;
72557;SDS011;60583;50.094;8.748;2022-11-20T02:15:59;19.80;;;9.82;;
72557;SDS011;60583;50.094;8.748;2022-11-20T02:18:24;20.88;;;10.15;;
72557;SDS011;60583;50.094;8.748;2022-11-20T02:20:55;21.20;;;10.85;;
72557;SDS011;60583;50.094;8.748;2022-11-20T02:23:39;22.17;;;10.68;;
72557;SDS011;60583;50.094;8.748;2022-11-20T02:26:11;22.75;;;10.30;;
72557;SDS011;60583;50.094;8.748;2022-11-20T02:28:38;21.77;;;10.27;;
72557;SDS011;60583;50.094;8.748;2022-11-20T02:31:04;23.25;;;10.98;;
72557;SDS011;60583;50.094;8.748;2022-11-20T02:33:29;21.55;;;9.95;;
72557;SDS011;60583;50.094;8.748;2022-11-20T02:35:54;22.60;;;10.70;;
72557;SDS011;60583;50.094;8.748;2022-11-20T02:38:20;20.85;;;9.93;;
72557;SDS011;60583;50.094;8.748;2022-11-20T02:40:45;22.98;;;10.80;;
72557;SDS011;60583;50.094;8.748;2022-11-20T02:43:11;23.38;;;10.85;;
72557;SDS011;60583;50.094;8.748;2022-11-20T02:45:36;22.65;;;10.85;;
72557;SDS011;60583;50.094;8.748;2022-11-20T02:48:02;23.25;;;10.48;;
72557;SDS011;60583;50.094;8.748;2022-11-20T02:50:28;22.95;;;10.40;;
72557;SDS011;60583;50.094;8.748;2022-11-20T02:52:53;22.65;;;10.77;;
72557;SDS011;60583;50.094;8.748;2022-11-20T02:55:18;20.35;;;10.43;;
72557;SDS011;60583;50.094;8.748;2022-11-20T02:57:44;23.00;;;11.18;;
72557;SDS011;60583;50.094;8.748;2022-11-20T03:00:09;24.25;;;11.07;;
72557;SDS011;60583;50.094;8.748;2022-11-20T03:02:35;23.63;;;12.00;;
72557;SDS011;60583;50.094;8.748;2022-11-20T03:05:01;23.60;;;11.57;;
72557;SDS011;60583;50.094;8.748;2022-11-20T03:07:26;24.58;;;10.85;;
72557;SDS011;60583;50.094;8.748;2022-11-20T03:09:52;23.85;;;11.10;;
72557;SDS011;60583;50.094;8.748;2022-11-20T03:12:17;24.75;;;11.57;;
72557;SDS011;60583;50.094;8.748;2022-11-20T03:14:43;23.52;;;11.48;;
72557;SDS011;60583;50.094;8.748;2022-11-20T03:17:08;23.08;;;10.35;;
72557;SDS011;60583;50.094;8.748;2022-11-20T03:19:34;22.50;;;10.80;;
72557;SDS011;60583;50.094;8.748;2022-11-20T03:21:59;24.73;;;11.65;;
72557;SDS011;60583;50.094;8.748;2022-11-20T03:24:25;25.25;;;11.38;;
72557;SDS011;60583;50.094;8.748;2022-11-20T03:26:51;22.02;;;10.55;;
72557;SDS011;60583;50.094;8.748;2022-11-20T03:29:16;24.95;;;11.73;;
72557;SDS011;60583;50.094;8.748;2022-11-20T03:31:41;24.23;;;11.60;;
72557;SDS011;60583;50.094;8.748;2022-11-20T03:34:07;24.60;;;11.30;;
72557;SDS011;60583;50.094;8.748;2022-11-20T03:36:34;25.30;;;11.25;;
72557;SDS011;60583;50.094;8.748;2022-11-20T03:39:02;23.23;;;11.10;;
72557;SDS011;60583;50.094;8.748;2022-11-20T03:41:31;24.20;;;11.00;;
72557;SDS011;60583;50.094;8.748;2022-11-20T03:44:02;25.65;;;11.60;;
72557;SDS011;60583;50.094;8.748;2022-11-20T03:46:29;23.60;;;10.77;;
72557;SDS011;60583;50.094;8.748;2022-11-20T03:48:55;23.17;;;10.70;;
72557;SDS011;60583;50.094;8.748;2022-11-20T03:51:21;25.13;;;11.50;;
72557;SDS011;60583;50.094;8.748;2022-11-20T03:53:49;27.55;;;12.20;;
72557;SDS011;60583;50.094;8.748;2022-11-20T03:56:16;22.35;;;10.77;;
72557;SDS011;60583;50.094;8.748;2022-11-20T03:58:43;22.58;;;10.88;;
72557;SDS011;60583;50.094;8.748;2022-11-20T04:01:14;22.42;;;9.95;;
72557;SDS011;60583;50.094;8.748;2022-11-20T04:03:41;23.48;;;11.20;;
72557;SDS011;60583;50.094;8.748;2022-11-20T04:06:15;23.83;;;10.93;;
72557;SDS011;60583;50.094;8.748;2022-11-20T04:08:42;23.98;;;10.98;;
72557;SDS011;60583;50.094;8.748;2022-11-20T04:11:09;25.35;;;11.90;;
72557;SDS011;60583;50.094;8.748;2022-11-20T04:13:39;23.58;;;11.23;;
72557;SDS011;60583;50.094;8.748;2022-11-20T04:16:06;22.40;;;10.52;;
72557;SDS011;60583;50.094;8.748;2022-11-20T04:18:32;25.67;;;11.27;;
72557;SDS011;60583;50.094;8.748;2022-11-20T04:20:58;24.17;;;11.30;;
72557;SDS011;60583;50.094;8.748;2022-11-20T04:23:24;24.63;;;11.75;;
72557;SDS011;60583;50.094;8.748;2022-11-20T04:25:50;31.38;;;14.93;;
72557;SDS011;60583;50.094;8.748;2022-11-20T04:28:15;27.98;;;12.25;;
72557;SDS011;60583;50.094;8.748;2022-11-20T04:30:41;25.23;;;11.43;;
72557;SDS011;60583;50.094;8.748;2022-11-20T04:33:07;23.85;;;10.95;;
72557;SDS011;60583;50.094;8.748;2022-11-20T04:35:36;26.30;;;12.20;;
72557;SDS011;60583;50.094;8.748;2022-11-20T04:38:01;25.23;;;11.68;;
72557;SDS011;60583;50.094;8.748;2022-11-20T04:40:28;23.98;;;12.02;;
72557;SDS011;60583;50.094;8.748;2022-11-20T04:42:53;26.50;;;12.10;;
72557;SDS011;60583;50.094;8.748;2022-11-20T04:45:19;25.13;;;11.35;;
72557;SDS011;60583;50.094;8.748;2022-11-20T04:47:45;22.67;;;10.50;;
72557;SDS011;60583;50.094;8.748;2022-11-20T04:50:10;25.52;;;12.45;;
72557;SDS011;60583;50.094;8.748;2022-11-20T04:52:36;22.75;;;11.13;;
72557;SDS011;60583;50.094;8.748;2022-11-20T04:55:01;23.73;;;11.18;;
72557;SDS011;60583;50.094;8.748;2022-11-20T04:57:26;24.50;;;11.88;;
72557;SDS011;60583;50.094;8.748;2022-11-20T04:59:52;24.40;;;11.13;;
72557;SDS011;60583;50.094;8.748;2022-11-20T05:02:17;24.38;;;11.57;;
72557;SDS011;60583;50.094;8.748;2022-11-20T05:04:43;23.92;;;10.63;;
72557;SDS011;60583;50.094;8.748;2022-11-20T05:07:08;25.15;;;10.85;;
72557;SDS011;60583;50.094;8.748;2022-11-20T05:09:33;27.63;;;12.35;;
72557;SDS011;60583;50.094;8.748;2022-11-20T05:11:59;27.60;;;12.52;;
72557;SDS011;60583;50.094;8.748;2022-11-20T05:14:24;24.98;;;11.20;;
72557;SDS011;60583;50.094;8.748;2022-11-20T05:16:49;28.30;;;12.38;;
72557;SDS011;60583;50.094;8.748;2022-11-20T05:19:15;26.35;;;11.75;;
72557;SDS011;60583;50.094;8.748;2022-11-20T05:21:40;27.17;;;11.75;;
72557;SDS011;60583;50.094;8.748;2022-11-20T05:24:06;26.50;;;11.88;;
72557;SDS011;60583;50.094;8.748;2022-11-20T05:26:32;26.08;;;11.93;;
72557;SDS011;60583;50.094;8.748;2022-11-20T05:28:57;29.52;;;12.25;;
72557;SDS011;60583;50.094;8.748;2022-11-20T05:31:24;27.17;;;13.07;;
72557;SDS011;60583;50.094;8.748;2022-11-20T05:33:50;28.25;;;12.10;;
72557;SDS011;60583;50.094;8.748;2022-11-20T05:36:15;28.67;;;12.55;;
72557;SDS011;60583;50.094;8.748;2022-11-20T05:38:41;27.92;;;11.88;;
72557;SDS011;60583;50.094;8.748;2022-11-20T05:41:11;25.42;;;11.20;;
72557;SDS011;60583;50.094;8.748;2022-11-20T05:43:41;27.15;;;11.63;;
72557;SDS011;60583;50.094;8.748;2022-11-20T05:46:09;24.88;;;12.07;;
72557;SDS011;60583;50.094;8.748;2022-11-20T05:48:37;29.60;;;12.63;;
72557;SDS011;60583;50.094;8.748;2022-11-20T05:51:04;28.40;;;12.77;;
72557;SDS011;60583;50.094;8.748;2022-11-20T05:53:32;28.02;;;12.43;;
72557;SDS011;60583;50.094;8.748;2022-11-20T05:55:59;28.75;;;12.40;;
72557;SDS011;60583;50.094;8.748;2022-11-20T05:58:25;31.10;;;12.75;;
72557;SDS011;60583;50.094;8.748;2022-11-20T06:00:51;28.95;;;12.50;;
72557;SDS011;60583;50.094;8.748;2022-11-20T06:03:16;28.58;;;12.52;;
72557;SDS011;60583;50.094;8.748;2022-11-20T06:05:42;32.72;;;13.68;;
72557;SDS011;60583;50.094;8.748;2022-11-20T06:08:07;25.80;;;11.25;;
72557;SDS011;60583;50.094;8.748;2022-11-20T06:10:33;29.65;;;12.88;;
72557;SDS011;60583;50.094;8.748;2022-11-20T06:12:58;30.40;;;13.70;;
72557;SDS011;60583;50.094;8.748;2022-11-20T06:15:23;34.47;;;13.10;;
72557;SDS011;60583;50.094;8.748;2022-11-20T06:17:53;31.90;;;12.95;;
72557;SDS011;60583;50.094;8.748;2022-11-20T06:20:19;28.70;;;12.65;;
72557;SDS011;60583;50.094;8.748;2022-11-20T06:22:45;28.05;;;12.02;;
72557;SDS011;60583;50.094;8.748;2022-11-20T06:25:10;26.65;;;12.38;;
72557;SDS011;60583;50.094;8.748;2022-11-20T06:27:35;25.95;;;11.52;;
72557;SDS011;60583;50.094;8.748;2022-11-20T06:30:01;32.03;;;13.13;;
72557;SDS011;60583;50.094;8.748;2022-11-20T06:32:26;32.90;;;13.50;;
72557;SDS011;60583;50.094;8.748;2022-11-20T06:34:51;26.55;;;12.02;;
72557;SDS011;60583;50.094;8.748;2022-11-20T06:37:17;30.23;;;12.00;;
72557;SDS011;60583;50.094;8.748;2022-11-20T06:39:42;25.02;;;12.07;;
72557;SDS011;60583;50.094;8.748;2022-11-20T06:42:08;29.70;;;13.07;;
72557;SDS011;60583;50.094;8.748;2022-11-20T06:44:33;29.88;;;12.65;;
72557;SDS011;60583;50.094;8.748;2022-11-20T06:46:58;30.10;;;13.45;;
72557;SDS011;60583;50.094;8.748;2022-11-20T06:49:24;27.23;;;11.50;;
72557;SDS011;60583;50.094;8.748;2022-11-20T06:51:50;27.33;;;11.57;;
72557;SDS011;60583;50.094;8.748;2022-11-20T06:54:15;28.27;;;11.63;;
72557;SDS011;60583;50.094;8.748;2022-11-20T06:56:41;31.95;;;13.10;;
72557;SDS011;60583;50.094;8.748;2022-11-20T06:59:06;28.67;;;12.30;;
72557;SDS011;60583;50.094;8.748;2022-11-20T07:01:32;30.35;;;12.80;;
72557;SDS011;60583;50.094;8.748;2022-11-20T07:03:58;32.00;;;12.43;;
72557;SDS011;60583;50.094;8.748;2022-11-20T07:06:23;32.05;;;13.05;;
72557;SDS011;60583;50.094;8.748;2022-11-20T07:08:50;30.58;;;12.50;;
72557;SDS011;60583;50.094;8.748;2022-11-20T07:11:17;32.20;;;12.95;;
72557;SDS011;60583;50.094;8.748;2022-11-20T07:13:42;32.45;;;13.98;;
72557;SDS011;60583;50.094;8.748;2022-11-20T07:16:08;35.97;;;12.88;;
72557;SDS011;60583;50.094;8.748;2022-11-20T07:18:33;37.22;;;14.02;;
72557;SDS011;60583;50.094;8.748;2022-11-20T07:21:00;32.30;;;13.63;;
72557;SDS011;60583;50.094;8.748;2022-11-20T07:23:30;30.73;;;13.48;;
72557;SDS011;60583;50.094;8.748;2022-11-20T07:25:55;34.95;;;13.32;;
72557;SDS011;60583;50.094;8.748;2022-11-20T07:28:21;34.60;;;13.57;;
72557;SDS011;60583;50.094;8.748;2022-11-20T07:30:52;31.73;;;12.80;;
72557;SDS011;60583;50.094;8.748;2022-11-20T07:33:18;32.88;;;13.45;;
72557;SDS011;60583;50.094;8.748;2022-11-20T07:35:44;32.85;;;12.95;;
72557;SDS011;60583;50.094;8.748;2022-11-20T07:38:10;35.70;;;13.32;;
72557;SDS011;60583;50.094;8.748;2022-11-20T07:40:35;40.25;;;14.25;;
72557;SDS011;60583;50.094;8.748;2022-11-20T07:43:00;34.97;;;14.45;;
72557;SDS011;60583;50.094;8.748;2022-11-20T07:45:26;34.45;;;13.73;;
72557;SDS011;60583;50.094;8.748;2022-11-20T07:47:51;35.72;;;13.80;;
72557;SDS011;60583;50.094;8.748;2022-11-20T07:50:17;36.50;;;13.43;;
72557;SDS011;60583;50.094;8.748;2022-11-20T07:52:43;36.03;;;13.93;;
72557;SDS011;60583;50.094;8.748;2022-11-20T07:55:09;37.88;;;13.50;;
72557;SDS011;60583;50.094;8.748;2022-11-20T07:57:35;39.13;;;14.13;;
72557;SDS011;60583;50.094;8.748;2022-11-20T08:00:01;30.42;;;12.77;;
72557;SDS011;60583;50.094;8.748;2022-11-20T08:02:27;32.08;;;12.95;;
72557;SDS011;60583;50.094;8.748;2022-11-20T08:04:53;31.75;;;13.57;;
72557;SDS011;60583;50.094;8.748;2022-11-20T08:07:18;34.80;;;13.82;;
72557;SDS011;60583;50.094;8.748;2022-11-20T08:09:44;30.98;;;12.65;;
72557;SDS011;60583;50.094;8.748;2022-11-20T08:12:14;32.83;;;12.23;;
72557;SDS011;60583;50.094;8.748;2022-11-20T08:15:02;32.20;;;13.13;;
72557;SDS011;60583;50.094;8.748;2022-11-20T08:17:28;34.10;;;13.90;;
72557;SDS011;60583;50.094;8.748;2022-11-20T08:19:53;33.13;;;13.60;;
72557;SDS011;60583;50.094;8.748;2022-11-20T08:22:19;37.63;;;15.75;;
72557;SDS011;60583;50.094;8.748;2022-11-20T08:24:45;34.55;;;14.07;;
72557;SDS011;60583;50.094;8.748;2022-11-20T08:27:10;37.00;;;14.43;;
72557;SDS011;60583;50.094;8.748;2022-11-20T08:29:36;45.72;;;18.05;;
72557;SDS011;60583;50.094;8.748;2022-11-20T08:32:01;30.80;;;13.32;;
72557;SDS011;60583;50.094;8.748;2022-11-20T08:34:26;31.45;;;12.80;;
72557;SDS011;60583;50.094;8.748;2022-11-20T08:36:52;30.23;;;12.18;;
72557;SDS011;60583;50.094;8.748;2022-11-20T08:39:17;33.25;;;12.77;;
72557;SDS011;60583;50.094;8.748;2022-11-20T08:41:43;31.88;;;12.32;;
72557;SDS011;60583;50.094;8.748;2022-11-20T08:44:08;31.70;;;11.90;;
72557;SDS011;60583;50.094;8.748;2022-11-20T08:46:35;29.20;;;13.05;;
72557;SDS011;60583;50.094;8.748;2022-11-20T08:49:06;30.90;;;12.23;;
72557;SDS011;60583;50.094;8.748;2022-11-20T08:51:33;27.75;;;11.95;;
72557;SDS011;60583;50.094;8.748;2022-11-20T08:53:59;30.50;;;11.82;;
72557;SDS011;60583;50.094;8.748;2022-11-20T08:56:24;27.98;;;11.95;;
72557;SDS011;60583;50.094;8.748;2022-11-20T08:58:51;29.02;;;11.15;;
72557;SDS011;60583;50.094;8.748;2022-11-20T09:01:17;27.88;;;12.27;;
72557;SDS011;60583;50.094;8.748;2022-11-20T09:03:45;28.83;;;12.38;;
72557;SDS011;60583;50.094;8.748;2022-11-20T09:06:11;28.48;;;11.40;;
72557;SDS011;60583;50.094;8.748;2022-11-20T09:08:36;28.25;;;11.55;;
72557;SDS011;60583;50.094;8.748;2022-11-20T09:11:02;25.25;;;11.15;;
72557;SDS011;60583;50.094;8.748;2022-11-20T09:13:29;28.38;;;11.82;;
72557;SDS011;60583;50.094;8.748;2022-11-20T09:15:55;26.67;;;12.02;;
72557;SDS011;60583;50.094;8.748;2022-11-20T09:18:22;27.42;;;12.32;;
72557;SDS011;60583;50.094;8.748;2022-11-20T09:20:48;28.70;;;12.52;;
72557;SDS011;60583;50.094;8.748;2022-11-20T09:23:14;26.35;;;11.95;;
72557;SDS011;60583;50.094;8.748;2022-11-20T09:25:40;29.27;;;12.35;;
72557;SDS011;60583;50.094;8.748;2022-11-20T09:28:06;28.77;;;11.50;;
72557;SDS011;60583;50.094;8.748;2022-11-20T09:30:32;29.30;;;12.02;;
72557;SDS011;60583;50.094;8.748;2022-11-20T09:32:58;28.15;;;12.55;;
72557;SDS011;60583;50.094;8.748;2022-11-20T09:35:23;26.90;;;11.75;;
72557;SDS011;60583;50.094;8.748;2022-11-20T09:37:48;23.10;;;10.88;;
72557;SDS011;60583;50.094;8.748;2022-11-20T09:40:25;24.15;;;11.68;;
72557;SDS011;60583;50.094;8.748;2022-11-20T09:48:46;24.90;;;12.18;;
72557;SDS011;60583;50.094;8.748;2022-11-20T09:54:20;24.08;;;11.88;;
72557;SDS011;60583;50.094;8.748;2022-11-20T09:57:02;24.15;;;11.60;;
72557;SDS011;60583;50.094;8.748;2022-11-20T10:02:02;26.63;;;13.27;;
72557;SDS011;60583;50.094;8.748;2022-11-20T10:05:05;24.40;;;12.40;;
72557;SDS011;60583;50.094;8.748;2022-11-20T10:07:39;25.02;;;11.07;;
72557;SDS011;60583;50.094;8.748;2022-11-20T10:10:21;25.80;;;11.75;;
72557;SDS011;60583;50.094;8.748;2022-11-20T10:15:34;25.05;;;11.68;;
72557;SDS011;60583;50.094;8.748;2022-11-20T10:23:45;24.10;;;10.80;;
72557;SDS011;60583;50.094;8.748;2022-11-20T10:26:25;25.02;;;12.15;;
72557;SDS011;60583;50.094;8.748;2022-11-20T10:29:12;30.00;;;13.23;;
72557;SDS011;60583;50.094;8.748;2022-11-20T10:31:40;27.67;;;13.35;;
72557;SDS011;60583;50.094;8.748;2022-11-20T10:34:22;30.40;;;13.30;;
72557;SDS011;60583;50.094;8.748;2022-11-20T10:37:00;28.10;;;13.55;;
72557;SDS011;60583;50.094;8.748;2022-11-20T10:39:51;27.52;;;12.43;;
72557;SDS011;60583;50.094;8.748;2022-11-20T10:45:53;30.25;;;14.20;;
72557;SDS011;60583;50.094;8.748;2022-11-20T10:48:39;29.88;;;14.23;;
72557;SDS011;60583;50.094;8.748;2022-11-20T10:50:59;32.17;;;14.57;;
72557;SDS011;60583;50.094;8.748;2022-11-20T10:56:39;31.02;;;14.05;;
72557;SDS011;60583;50.094;8.748;2022-11-20T11:02:01;33.35;;;15.43;;
72557;SDS011;60583;50.094;8.748;2022-11-20T11:04:40;32.67;;;14.75;;
72557;SDS011;60583;50.094;8.748;2022-11-20T11:07:12;33.70;;;15.18;;
72557;SDS011;60583;50.094;8.748;2022-11-20T11:09:49;33.15;;;14.88;;
72557;SDS011;60583;50.094;8.748;2022-11-20T11:12:19;34.78;;;14.57;;
72557;SDS011;60583;50.094;8.748;2022-11-20T11:14:56;27.08;;;12.98;;
72557;SDS011;60583;50.094;8.748;2022-11-20T11:20:03;33.75;;;15.13;;
72557;SDS011;60583;50.094;8.748;2022-11-20T11:22:30;31.13;;;14.77;;
72557;SDS011;60583;50.094;8.748;2022-11-20T11:24:57;34.97;;;15.90;;
72557;SDS011;60583;50.094;8.748;2022-11-20T11:27:23;36.47;;;16.10;;
72557;SDS011;60583;50.094;8.748;2022-11-20T11:29:48;32.30;;;15.15;;
72557;SDS011;60583;50.094;8.748;2022-11-20T11:32:15;30.63;;;14.43;;
72557;SDS011;60583;50.094;8.748;2022-11-20T11:34:43;35.25;;;16.67;;
72557;SDS011;60583;50.094;8.748;2022-11-20T11:37:18;35.15;;;16.10;;
72557;SDS011;60583;50.094;8.748;2022-11-20T11:39:46;29.15;;;14.05;;
72557;SDS011;60583;50.094;8.748;2022-11-20T11:42:15;29.27;;;13.60;;
72557;SDS011;60583;50.094;8.748;2022-11-20T11:44:44;33.67;;;15.25;;
72557;SDS011;60583;50.094;8.748;2022-11-20T11:48:03;29.45;;;13.43;;
72557;SDS011;60583;50.094;8.748;2022-11-20T11:50:24;30.48;;;13.50;;
72557;SDS011;60583;50.094;8.748;2022-11-20T11:58:13;27.45;;;12.75;;
72557;SDS011;60583;50.094;8.748;2022-11-20T12:00:47;22.60;;;11.07;;
72557;SDS011;60583;50.094;8.748;2022-11-20T12:03:20;25.27;;;11.57;;
72557;SDS011;60583;50.094;8.748;2022-11-20T12:05:53;27.17;;;12.20;;
72557;SDS011;60583;50.094;8.748;2022-11-20T12:08:41;27.75;;;13.00;;
72557;SDS011;60583;50.094;8.748;2022-11-20T12:11:29;26.92;;;11.93;;
72557;SDS011;60583;50.094;8.748;2022-11-20T12:19:07;25.60;;;12.32;;
72557;SDS011;60583;50.094;8.748;2022-11-20T12:26:57;27.50;;;12.80;;
72557;SDS011;60583;50.094;8.748;2022-11-20T12:35:29;24.60;;;12.98;;
72557;SDS011;60583;50.094;8.748;2022-11-20T12:38:20;25.80;;;12.32;;
72557;SDS011;60583;50.094;8.748;2022-11-20T12:40:54;24.23;;;12.52;;
72557;SDS011;60583;50.094;8.748;2022-11-20T12:49:53;23.90;;;12.07;;
72557;SDS011;60583;50.094;8.748;2022-11-20T12:52:37;24.75;;;11.85;;
72557;SDS011;60583;50.094;8.748;2022-11-20T12:55:14;26.95;;;11.82;;
72557;SDS011;60583;50.094;8.748;2022-11-20T12:57:50;26.40;;;13.02;;
72557;SDS011;60583;50.094;8.748;2022-11-20T13:00:22;25.48;;;12.30;;
72557;SDS011;60583;50.094;8.748;2022-11-20T13:08:39;26.90;;;12.50;;
72557;SDS011;60583;50.094;8.748;2022-11-20T13:11:13;23.33;;;11.93;;
72557;SDS011;60583;50.094;8.748;2022-11-20T13:18:53;25.63;;;12.60;;
72557;SDS011;60583;50.094;8.748;2022-11-20T13:21:20;24.63;;;10.73;;
72557;SDS011;60583;50.094;8.748;2022-11-20T13:23:47;26.55;;;11.80;;
72557;SDS011;60583;50.094;8.748;2022-11-20T13:26:17;24.92;;;11.90;;
72557;SDS011;60583;50.094;8.748;2022-11-20T13:28:48;24.05;;;10.73;;
72557;SDS011;60583;50.094;8.748;2022-11-20T13:31:31;27.45;;;11.65;;
72557;SDS011;60583;50.094;8.748;2022-11-20T13:33:59;23.85;;;12.32;;
72557;SDS011;60583;50.094;8.748;2022-11-20T13:36:27;22.17;;;10.70;;
72557;SDS011;60583;50.094;8.748;2022-11-20T13:38:55;24.92;;;12.07;;
72557;SDS011;60583;50.094;8.748;2022-11-20T13:41:34;25.58;;;12.20;;
72557;SDS011;60583;50.094;8.748;2022-11-20T13:46:41;25.55;;;12.05;;
72557;SDS011;60583;50.094;8.748;2022-11-20T13:49:24;24.08;;;11.73;;
72557;SDS011;60583;50.094;8.748;2022-11-20T13:52:03;24.48;;;10.82;;
72557;SDS011;60583;50.094;8.748;2022-11-20T14:00:12;24.75;;;11.18;;
72557;SDS011;60583;50.094;8.748;2022-11-20T14:02:38;21.63;;;10.68;;
72557;SDS011;60583;50.094;8.748;2022-11-20T14:05:04;23.45;;;10.75;;
72557;SDS011;60583;50.094;8.748;2022-11-20T14:07:40;23.60;;;11.10;;
72557;SDS011;60583;50.094;8.748;2022-11-20T14:10:25;24.23;;;11.43;;
72557;SDS011;60583;50.094;8.748;2022-11-20T14:12:52;24.60;;;11.40;;
72557;SDS011;60583;50.094;8.748;2022-11-20T14:15:28;23.25;;;12.05;;
72557;SDS011;60583;50.094;8.748;2022-11-20T14:17:56;24.13;;;10.80;;
72557;SDS011;60583;50.094;8.748;2022-11-20T14:20:23;24.40;;;11.10;;
72557;SDS011;60583;50.094;8.748;2022-11-20T14:22:52;21.50;;;10.45;;
72557;SDS011;60583;50.094;8.748;2022-11-20T14:25:21;23.42;;;10.50;;
72557;SDS011;60583;50.094;8.748;2022-11-20T14:27:59;22.42;;;10.98;;
72557;SDS011;60583;50.094;8.748;2022-11-20T14:30:36;25.85;;;12.23;;
72557;SDS011;60583;50.094;8.748;2022-11-20T14:33:09;24.00;;;11.68;;
72557;SDS011;60583;50.094;8.748;2022-11-20T14:35:40;24.42;;;11.82;;
72557;SDS011;60583;50.094;8.748;2022-11-20T14:38:16;22.13;;;11.02;;
72557;SDS011;60583;50.094;8.748;2022-11-20T14:43:25;19.80;;;9.55;;
72557;SDS011;60583;50.094;8.748;2022-11-20T14:46:05;21.55;;;10.75;;
72557;SDS011;60583;50.094;8.748;2022-11-20T14:48:33;21.65;;;10.25;;
72557;SDS011;60583;50.094;8.748;2022-11-20T14:51:04;19.92;;;10.02;;
72557;SDS011;60583;50.094;8.748;2022-11-20T14:53:29;21.00;;;10.10;;
72557;SDS011;60583;50.094;8.748;2022-11-20T14:55:59;21.42;;;10.88;;
72557;SDS011;60583;50.094;8.748;2022-11-20T14:58:30;19.40;;;10.20;;
72557;SDS011;60583;50.094;8.748;2022-11-20T15:01:02;22.83;;;10.90;;
72557;SDS011;60583;50.094;8.748;2022-11-20T15:03:35;23.77;;;11.15;;
72557;SDS011;60583;50.094;8.748;2022-11-20T15:06:03;24.58;;;11.70;;
72557;SDS011;60583;50.094;8.748;2022-11-20T15:08:29;21.80;;;10.82;;
72557;SDS011;60583;50.094;8.748;2022-11-20T15:10:55;21.42;;;10.68;;
72557;SDS011;60583;50.094;8.748;2022-11-20T15:13:39;23.20;;;10.57;;
72557;SDS011;60583;50.094;8.748;2022-11-20T15:16:08;22.55;;;11.52;;
72557;SDS011;60583;50.094;8.748;2022-11-20T15:18:42;23.13;;;12.73;;
72557;SDS011;60583;50.094;8.748;2022-11-20T15:21:11;25.60;;;12.02;;
72557;SDS011;60583;50.094;8.748;2022-11-20T15:23:39;21.95;;;10.65;;
72557;SDS011;60583;50.094;8.748;2022-11-20T15:26:04;19.95;;;10.93;;
72557;SDS011;60583;50.094;8.748;2022-11-20T15:28:33;21.48;;;10.65;;
72557;SDS011;60583;50.094;8.748;2022-11-20T15:31:12;24.38;;;11.52;;
72557;SDS011;60583;50.094;8.748;2022-11-20T15:33:38;27.65;;;14.25;;
72557;SDS011;60583;50.094;8.748;2022-11-20T15:36:04;25.67;;;12.43;;
72557;SDS011;60583;50.094;8.748;2022-11-20T15:38:29;22.40;;;11.88;;
72557;SDS011;60583;50.094;8.748;2022-11-20T15:40:55;23.42;;;11.43;;
72557;SDS011;60583;50.094;8.748;2022-11-20T15:43:20;21.35;;;10.18;;
72557;SDS011;60583;50.094;8.748;2022-11-20T15:45:50;23.67;;;11.13;;
72557;SDS011;60583;50.094;8.748;2022-11-20T15:48:19;22.85;;;10.98;;
72557;SDS011;60583;50.094;8.748;2022-11-20T15:53:38;21.95;;;10.32;;
72557;SDS011;60583;50.094;8.748;2022-11-20T15:56:05;21.65;;;10.15;;